sensor_id;sensor_type;location;lat;lon;timestamp;P1;durP1;ratioP1;P2;durP2;ratioP2
8225;SDS011;4154;48.810;9.012;2023-03-04T00:01:46;22.97;;;18.03;;
8225;SDS011;4154;48.810;9.012;2023-03-04T00:04:11;26.17;;;18.77;;
8225;SDS011;4154;48.810;9.012;2023-03-04T00:06:37;24.77;;;18.87;;
8225;SDS011;4154;48.810;9.012;2023-03-04T00:09:03;26.60;;;18.97;;
8225;SDS011;4154;48.810;9.012;2023-03-04T00:11:30;25.73;;;19.07;;
8225;SDS011;4154;48.810;9.012;2023-03-04T00:13:56;23.30;;;17.80;;
8225;SDS011;4154;48.810;9.012;2023-03-04T00:16:22;25.43;;;18.37;;
8225;SDS011;4154;48.810;9.012;2023-03-04T00:18:52;27.10;;;18.67;;
8225;SDS011;4154;48.810;9.012;2023-03-04T00:21:20;25.27;;;19.23;;
8225;SDS011;4154;48.810;9.012;2023-03-04T00:23:46;27.60;;;18.83;;
8225;SDS011;4154;48.810;9.012;2023-03-04T00:26:12;26.53;;;18.80;;
8225;SDS011;4154;48.810;9.012;2023-03-04T00:28:39;27.83;;;18.83;;
8225;SDS011;4154;48.810;9.012;2023-03-04T00:31:08;25.37;;;17.97;;
8225;SDS011;4154;48.810;9.012;2023-03-04T00:33:34;26.97;;;17.60;;
8225;SDS011;4154;48.810;9.012;2023-03-04T00:36:00;25.43;;;18.30;;
8225;SDS011;4154;48.810;9.012;2023-03-04T00:38:26;26.40;;;18.67;;
8225;SDS011;4154;48.810;9.012;2023-03-04T00:40:52;26.73;;;18.63;;
8225;SDS011;4154;48.810;9.012;2023-03-04T00:43:18;24.13;;;18.50;;
8225;SDS011;4154;48.810;9.012;2023-03-04T00:45:44;26.40;;;18.27;;
8225;SDS011;4154;48.810;9.012;2023-03-04T00:48:10;23.00;;;17.47;;
8225;SDS011;4154;48.810;9.012;2023-03-04T00:50:36;24.33;;;18.30;;
8225;SDS011;4154;48.810;9.012;2023-03-04T00:53:02;24.30;;;17.77;;
8225;SDS011;4154;48.810;9.012;2023-03-04T00:55:28;25.17;;;17.30;;
8225;SDS011;4154;48.810;9.012;2023-03-04T00:57:54;23.67;;;17.80;;
8225;SDS011;4154;48.810;9.012;2023-03-04T01:00:20;24.23;;;17.87;;
8225;SDS011;4154;48.810;9.012;2023-03-04T01:02:46;27.73;;;18.47;;
8225;SDS011;4154;48.810;9.012;2023-03-04T01:05:11;26.00;;;18.70;;
8225;SDS011;4154;48.810;9.012;2023-03-04T01:07:37;27.03;;;18.87;;
8225;SDS011;4154;48.810;9.012;2023-03-04T01:10:04;25.43;;;17.70;;
8225;SDS011;4154;48.810;9.012;2023-03-04T01:12:32;27.33;;;18.00;;
8225;SDS011;4154;48.810;9.012;2023-03-04T01:14:57;26.07;;;17.97;;
8225;SDS011;4154;48.810;9.012;2023-03-04T01:17:23;23.47;;;17.70;;
8225;SDS011;4154;48.810;9.012;2023-03-04T01:19:49;24.37;;;17.93;;
8225;SDS011;4154;48.810;9.012;2023-03-04T01:22:15;24.53;;;17.80;;
8225;SDS011;4154;48.810;9.012;2023-03-04T01:24:42;23.90;;;17.67;;
8225;SDS011;4154;48.810;9.012;2023-03-04T01:27:09;25.20;;;17.53;;
8225;SDS011;4154;48.810;9.012;2023-03-04T01:29:35;23.47;;;17.70;;
8225;SDS011;4154;48.810;9.012;2023-03-04T01:32:00;25.53;;;18.60;;
8225;SDS011;4154;48.810;9.012;2023-03-04T01:34:26;23.93;;;17.27;;
8225;SDS011;4154;48.810;9.012;2023-03-04T01:36:52;24.17;;;17.83;;
8225;SDS011;4154;48.810;9.012;2023-03-04T01:39:18;25.53;;;17.60;;
8225;SDS011;4154;48.810;9.012;2023-03-04T01:41:44;23.43;;;17.17;;
8225;SDS011;4154;48.810;9.012;2023-03-04T01:44:09;24.73;;;17.30;;
8225;SDS011;4154;48.810;9.012;2023-03-04T01:46:36;25.90;;;18.27;;
8225;SDS011;4154;48.810;9.012;2023-03-04T01:49:05;23.53;;;17.57;;
8225;SDS011;4154;48.810;9.012;2023-03-04T01:51:30;24.50;;;18.13;;
8225;SDS011;4154;48.810;9.012;2023-03-04T01:53:56;24.80;;;17.37;;
8225;SDS011;4154;48.810;9.012;2023-03-04T01:56:23;26.27;;;17.13;;
8225;SDS011;4154;48.810;9.012;2023-03-04T01:59:10;25.67;;;17.73;;
8225;SDS011;4154;48.810;9.012;2023-03-04T02:01:51;24.17;;;17.17;;
8225;SDS011;4154;48.810;9.012;2023-03-04T02:04:21;25.80;;;17.40;;
8225;SDS011;4154;48.810;9.012;2023-03-04T02:06:55;23.53;;;17.07;;
8225;SDS011;4154;48.810;9.012;2023-03-04T02:09:22;22.83;;;17.10;;
8225;SDS011;4154;48.810;9.012;2023-03-04T02:11:48;24.17;;;17.50;;
8225;SDS011;4154;48.810;9.012;2023-03-04T02:14:16;22.67;;;16.83;;
8225;SDS011;4154;48.810;9.012;2023-03-04T02:16:43;23.37;;;16.77;;
8225;SDS011;4154;48.810;9.012;2023-03-04T02:22:22;23.40;;;16.80;;
8225;SDS011;4154;48.810;9.012;2023-03-04T02:24:49;21.10;;;16.37;;
8225;SDS011;4154;48.810;9.012;2023-03-04T02:27:21;23.40;;;16.97;;
8225;SDS011;4154;48.810;9.012;2023-03-04T02:29:47;23.03;;;15.67;;
8225;SDS011;4154;48.810;9.012;2023-03-04T02:32:13;19.80;;;15.07;;
8225;SDS011;4154;48.810;9.012;2023-03-04T02:34:45;21.50;;;15.97;;
8225;SDS011;4154;48.810;9.012;2023-03-04T02:37:14;22.17;;;15.03;;
8225;SDS011;4154;48.810;9.012;2023-03-04T02:39:43;20.53;;;15.13;;
8225;SDS011;4154;48.810;9.012;2023-03-04T02:42:12;22.30;;;16.37;;
8225;SDS011;4154;48.810;9.012;2023-03-04T02:44:39;22.33;;;16.70;;
8225;SDS011;4154;48.810;9.012;2023-03-04T02:47:10;22.13;;;16.00;;
8225;SDS011;4154;48.810;9.012;2023-03-04T02:49:39;21.63;;;15.07;;
8225;SDS011;4154;48.810;9.012;2023-03-04T02:52:06;21.17;;;15.43;;
8225;SDS011;4154;48.810;9.012;2023-03-04T02:54:34;21.27;;;15.23;;
8225;SDS011;4154;48.810;9.012;2023-03-04T02:57:02;20.50;;;15.00;;
8225;SDS011;4154;48.810;9.012;2023-03-04T02:59:32;22.47;;;15.23;;
8225;SDS011;4154;48.810;9.012;2023-03-04T03:01:59;21.93;;;15.23;;
8225;SDS011;4154;48.810;9.012;2023-03-04T03:04:25;21.60;;;15.80;;
8225;SDS011;4154;48.810;9.012;2023-03-04T03:06:51;23.43;;;16.73;;
8225;SDS011;4154;48.810;9.012;2023-03-04T03:09:17;20.97;;;14.67;;
8225;SDS011;4154;48.810;9.012;2023-03-04T03:11:43;21.97;;;15.87;;
8225;SDS011;4154;48.810;9.012;2023-03-04T03:14:09;21.43;;;15.80;;
8225;SDS011;4154;48.810;9.012;2023-03-04T03:16:35;20.77;;;14.60;;
8225;SDS011;4154;48.810;9.012;2023-03-04T03:19:00;19.97;;;14.37;;
8225;SDS011;4154;48.810;9.012;2023-03-04T03:21:26;19.87;;;14.60;;
8225;SDS011;4154;48.810;9.012;2023-03-04T03:23:52;21.97;;;14.53;;
8225;SDS011;4154;48.810;9.012;2023-03-04T03:26:17;20.87;;;14.57;;
8225;SDS011;4154;48.810;9.012;2023-03-04T03:28:44;20.00;;;14.63;;
8225;SDS011;4154;48.810;9.012;2023-03-04T03:31:10;19.07;;;14.70;;
8225;SDS011;4154;48.810;9.012;2023-03-04T03:33:35;21.57;;;15.23;;
8225;SDS011;4154;48.810;9.012;2023-03-04T03:36:01;20.37;;;14.47;;
8225;SDS011;4154;48.810;9.012;2023-03-04T03:38:27;22.13;;;14.67;;
8225;SDS011;4154;48.810;9.012;2023-03-04T03:40:53;19.77;;;14.37;;
8225;SDS011;4154;48.810;9.012;2023-03-04T03:43:18;19.27;;;14.60;;
8225;SDS011;4154;48.810;9.012;2023-03-04T03:45:44;21.10;;;15.00;;
8225;SDS011;4154;48.810;9.012;2023-03-04T03:48:10;18.67;;;13.53;;
8225;SDS011;4154;48.810;9.012;2023-03-04T03:50:35;19.67;;;14.63;;
8225;SDS011;4154;48.810;9.012;2023-03-04T03:53:01;19.37;;;13.77;;
8225;SDS011;4154;48.810;9.012;2023-03-04T03:55:27;21.03;;;14.20;;
8225;SDS011;4154;48.810;9.012;2023-03-04T03:57:53;20.87;;;14.07;;
8225;SDS011;4154;48.810;9.012;2023-03-04T04:00:19;20.37;;;14.63;;
8225;SDS011;4154;48.810;9.012;2023-03-04T04:02:45;18.87;;;14.50;;
8225;SDS011;4154;48.810;9.012;2023-03-04T04:05:10;21.27;;;14.43;;
8225;SDS011;4154;48.810;9.012;2023-03-04T04:07:37;18.90;;;14.80;;
8225;SDS011;4154;48.810;9.012;2023-03-04T04:10:03;19.07;;;14.07;;
8225;SDS011;4154;48.810;9.012;2023-03-04T04:12:30;19.10;;;14.67;;
8225;SDS011;4154;48.810;9.012;2023-03-04T04:14:56;19.03;;;14.43;;
8225;SDS011;4154;48.810;9.012;2023-03-04T04:17:21;20.10;;;14.90;;
8225;SDS011;4154;48.810;9.012;2023-03-04T04:19:47;20.63;;;14.20;;
8225;SDS011;4154;48.810;9.012;2023-03-04T04:22:14;19.60;;;14.77;;
8225;SDS011;4154;48.810;9.012;2023-03-04T04:24:42;19.87;;;15.23;;
8225;SDS011;4154;48.810;9.012;2023-03-04T04:27:08;20.10;;;14.03;;
8225;SDS011;4154;48.810;9.012;2023-03-04T04:29:34;18.97;;;14.37;;
8225;SDS011;4154;48.810;9.012;2023-03-04T04:32:00;19.47;;;14.23;;
8225;SDS011;4154;48.810;9.012;2023-03-04T04:34:26;22.07;;;15.13;;
8225;SDS011;4154;48.810;9.012;2023-03-04T04:36:52;21.03;;;14.00;;
8225;SDS011;4154;48.810;9.012;2023-03-04T04:39:17;18.57;;;14.07;;
8225;SDS011;4154;48.810;9.012;2023-03-04T04:41:44;20.23;;;14.37;;
8225;SDS011;4154;48.810;9.012;2023-03-04T04:44:10;19.23;;;13.33;;
8225;SDS011;4154;48.810;9.012;2023-03-04T04:46:37;19.63;;;14.60;;
8225;SDS011;4154;48.810;9.012;2023-03-04T04:49:04;18.93;;;13.50;;
8225;SDS011;4154;48.810;9.012;2023-03-04T04:51:31;20.00;;;14.10;;
8225;SDS011;4154;48.810;9.012;2023-03-04T04:53:59;19.30;;;14.00;;
8225;SDS011;4154;48.810;9.012;2023-03-04T04:56:26;18.80;;;14.00;;
8225;SDS011;4154;48.810;9.012;2023-03-04T04:58:53;19.33;;;13.93;;
8225;SDS011;4154;48.810;9.012;2023-03-04T05:01:24;19.63;;;14.10;;
8225;SDS011;4154;48.810;9.012;2023-03-04T05:03:51;19.50;;;14.17;;
8225;SDS011;4154;48.810;9.012;2023-03-04T05:06:19;20.33;;;14.03;;
8225;SDS011;4154;48.810;9.012;2023-03-04T05:08:47;18.53;;;13.77;;
8225;SDS011;4154;48.810;9.012;2023-03-04T05:11:13;19.13;;;14.20;;
8225;SDS011;4154;48.810;9.012;2023-03-04T05:13:39;19.43;;;13.83;;
8225;SDS011;4154;48.810;9.012;2023-03-04T05:16:05;20.00;;;14.47;;
8225;SDS011;4154;48.810;9.012;2023-03-04T05:18:32;19.40;;;13.80;;
8225;SDS011;4154;48.810;9.012;2023-03-04T05:20:58;18.20;;;13.27;;
8225;SDS011;4154;48.810;9.012;2023-03-04T05:23:28;18.60;;;13.07;;
8225;SDS011;4154;48.810;9.012;2023-03-04T05:25:56;17.10;;;12.60;;
8225;SDS011;4154;48.810;9.012;2023-03-04T05:28:22;18.03;;;13.43;;
8225;SDS011;4154;48.810;9.012;2023-03-04T05:30:48;18.07;;;12.93;;
8225;SDS011;4154;48.810;9.012;2023-03-04T05:33:14;16.90;;;12.80;;
8225;SDS011;4154;48.810;9.012;2023-03-04T05:35:42;17.30;;;12.30;;
8225;SDS011;4154;48.810;9.012;2023-03-04T05:38:11;17.93;;;13.60;;
8225;SDS011;4154;48.810;9.012;2023-03-04T05:40:39;18.23;;;13.10;;
8225;SDS011;4154;48.810;9.012;2023-03-04T05:43:06;18.67;;;13.60;;
8225;SDS011;4154;48.810;9.012;2023-03-04T05:45:32;18.37;;;13.87;;
8225;SDS011;4154;48.810;9.012;2023-03-04T05:47:58;19.53;;;13.17;;
8225;SDS011;4154;48.810;9.012;2023-03-04T05:50:24;18.77;;;12.60;;
8225;SDS011;4154;48.810;9.012;2023-03-04T05:52:50;19.17;;;13.20;;
8225;SDS011;4154;48.810;9.012;2023-03-04T05:55:16;19.80;;;13.57;;
8225;SDS011;4154;48.810;9.012;2023-03-04T05:57:42;17.33;;;12.97;;
8225;SDS011;4154;48.810;9.012;2023-03-04T06:00:09;18.40;;;12.63;;
8225;SDS011;4154;48.810;9.012;2023-03-04T06:02:37;19.47;;;13.47;;
8225;SDS011;4154;48.810;9.012;2023-03-04T06:05:04;18.23;;;13.43;;
8225;SDS011;4154;48.810;9.012;2023-03-04T06:07:31;18.13;;;13.23;;
8225;SDS011;4154;48.810;9.012;2023-03-04T06:09:57;18.97;;;13.53;;
8225;SDS011;4154;48.810;9.012;2023-03-04T06:12:23;20.20;;;14.00;;
8225;SDS011;4154;48.810;9.012;2023-03-04T06:14:49;17.93;;;13.23;;
8225;SDS011;4154;48.810;9.012;2023-03-04T06:17:14;18.47;;;13.07;;
8225;SDS011;4154;48.810;9.012;2023-03-04T06:19:40;18.70;;;13.47;;
8225;SDS011;4154;48.810;9.012;2023-03-04T06:22:06;17.73;;;13.20;;
8225;SDS011;4154;48.810;9.012;2023-03-04T06:24:33;18.87;;;13.57;;
8225;SDS011;4154;48.810;9.012;2023-03-04T06:26:59;18.47;;;13.50;;
8225;SDS011;4154;48.810;9.012;2023-03-04T06:29:25;17.80;;;12.70;;
8225;SDS011;4154;48.810;9.012;2023-03-04T06:31:51;20.33;;;13.67;;
8225;SDS011;4154;48.810;9.012;2023-03-04T06:34:16;19.03;;;13.70;;
8225;SDS011;4154;48.810;9.012;2023-03-04T06:36:42;20.90;;;13.43;;
8225;SDS011;4154;48.810;9.012;2023-03-04T06:39:08;18.30;;;13.80;;
8225;SDS011;4154;48.810;9.012;2023-03-04T06:41:34;19.67;;;13.33;;
8225;SDS011;4154;48.810;9.012;2023-03-04T06:44:00;18.87;;;13.60;;
8225;SDS011;4154;48.810;9.012;2023-03-04T06:46:25;19.30;;;13.63;;
8225;SDS011;4154;48.810;9.012;2023-03-04T06:48:51;20.70;;;13.80;;
8225;SDS011;4154;48.810;9.012;2023-03-04T06:51:17;20.93;;;14.03;;
8225;SDS011;4154;48.810;9.012;2023-03-04T06:53:44;19.27;;;13.77;;
8225;SDS011;4154;48.810;9.012;2023-03-04T06:56:10;19.40;;;13.00;;
8225;SDS011;4154;48.810;9.012;2023-03-04T06:58:40;19.70;;;13.80;;
8225;SDS011;4154;48.810;9.012;2023-03-04T07:01:10;19.57;;;14.03;;
8225;SDS011;4154;48.810;9.012;2023-03-04T07:03:39;21.73;;;13.97;;
8225;SDS011;4154;48.810;9.012;2023-03-04T07:06:06;19.70;;;14.07;;
8225;SDS011;4154;48.810;9.012;2023-03-04T07:08:34;22.03;;;14.27;;
8225;SDS011;4154;48.810;9.012;2023-03-04T07:11:00;20.93;;;14.53;;
8225;SDS011;4154;48.810;9.012;2023-03-04T07:13:26;20.17;;;13.50;;
8225;SDS011;4154;48.810;9.012;2023-03-04T07:15:51;20.30;;;13.83;;
8225;SDS011;4154;48.810;9.012;2023-03-04T07:18:17;20.80;;;13.93;;
8225;SDS011;4154;48.810;9.012;2023-03-04T07:20:43;19.77;;;14.33;;
8225;SDS011;4154;48.810;9.012;2023-03-04T07:23:08;20.97;;;14.67;;
8225;SDS011;4154;48.810;9.012;2023-03-04T07:25:34;19.53;;;13.40;;
8225;SDS011;4154;48.810;9.012;2023-03-04T07:28:00;20.10;;;14.47;;
8225;SDS011;4154;48.810;9.012;2023-03-04T07:30:25;20.27;;;12.90;;
8225;SDS011;4154;48.810;9.012;2023-03-04T07:32:51;18.67;;;13.27;;
8225;SDS011;4154;48.810;9.012;2023-03-04T07:35:17;17.67;;;12.97;;
8225;SDS011;4154;48.810;9.012;2023-03-04T07:37:43;16.10;;;12.30;;
8225;SDS011;4154;48.810;9.012;2023-03-04T07:40:10;15.90;;;12.00;;
8225;SDS011;4154;48.810;9.012;2023-03-04T07:42:36;17.67;;;12.50;;
8225;SDS011;4154;48.810;9.012;2023-03-04T07:45:02;18.57;;;13.37;;
8225;SDS011;4154;48.810;9.012;2023-03-04T07:47:30;17.87;;;12.63;;
8225;SDS011;4154;48.810;9.012;2023-03-04T07:49:56;16.23;;;12.10;;
8225;SDS011;4154;48.810;9.012;2023-03-04T07:52:21;17.90;;;13.37;;
8225;SDS011;4154;48.810;9.012;2023-03-04T07:54:47;17.90;;;13.57;;
8225;SDS011;4154;48.810;9.012;2023-03-04T07:57:13;17.40;;;13.00;;
8225;SDS011;4154;48.810;9.012;2023-03-04T07:59:39;18.73;;;13.60;;
8225;SDS011;4154;48.810;9.012;2023-03-04T08:02:05;17.63;;;12.83;;
8225;SDS011;4154;48.810;9.012;2023-03-04T08:04:31;17.73;;;12.70;;
8225;SDS011;4154;48.810;9.012;2023-03-04T08:06:56;17.67;;;12.53;;
8225;SDS011;4154;48.810;9.012;2023-03-04T08:09:22;20.00;;;13.07;;
8225;SDS011;4154;48.810;9.012;2023-03-04T08:11:48;17.43;;;12.83;;
8225;SDS011;4154;48.810;9.012;2023-03-04T08:14:14;16.80;;;12.03;;
8225;SDS011;4154;48.810;9.012;2023-03-04T08:16:40;16.27;;;12.27;;
8225;SDS011;4154;48.810;9.012;2023-03-04T08:19:05;17.27;;;12.73;;
8225;SDS011;4154;48.810;9.012;2023-03-04T08:21:32;17.67;;;12.23;;
8225;SDS011;4154;48.810;9.012;2023-03-04T08:23:59;18.67;;;13.00;;
8225;SDS011;4154;48.810;9.012;2023-03-04T08:26:32;17.37;;;11.93;;
8225;SDS011;4154;48.810;9.012;2023-03-04T08:29:09;17.30;;;12.43;;
8225;SDS011;4154;48.810;9.012;2023-03-04T08:31:42;15.57;;;11.97;;
8225;SDS011;4154;48.810;9.012;2023-03-04T08:34:10;16.93;;;12.27;;
8225;SDS011;4154;48.810;9.012;2023-03-04T08:36:37;16.90;;;12.13;;
8225;SDS011;4154;48.810;9.012;2023-03-04T08:39:03;18.03;;;12.73;;
8225;SDS011;4154;48.810;9.012;2023-03-04T08:41:29;17.07;;;11.93;;
8225;SDS011;4154;48.810;9.012;2023-03-04T08:43:55;17.30;;;12.67;;
8225;SDS011;4154;48.810;9.012;2023-03-04T08:46:21;16.13;;;11.80;;
8225;SDS011;4154;48.810;9.012;2023-03-04T08:48:47;18.20;;;12.40;;
8225;SDS011;4154;48.810;9.012;2023-03-04T08:51:13;18.03;;;12.13;;
8225;SDS011;4154;48.810;9.012;2023-03-04T08:53:40;17.67;;;11.97;;
8225;SDS011;4154;48.810;9.012;2023-03-04T08:56:07;17.00;;;12.07;;
8225;SDS011;4154;48.810;9.012;2023-03-04T08:58:33;15.30;;;11.53;;
8225;SDS011;4154;48.810;9.012;2023-03-04T09:00:59;17.90;;;12.23;;
8225;SDS011;4154;48.810;9.012;2023-03-04T09:03:25;14.53;;;11.57;;
8225;SDS011;4154;48.810;9.012;2023-03-04T09:05:52;15.77;;;11.87;;
8225;SDS011;4154;48.810;9.012;2023-03-04T09:08:18;16.77;;;12.50;;
8225;SDS011;4154;48.810;9.012;2023-03-04T09:10:44;16.67;;;12.50;;
8225;SDS011;4154;48.810;9.012;2023-03-04T09:13:11;16.73;;;12.20;;
8225;SDS011;4154;48.810;9.012;2023-03-04T09:15:44;16.23;;;12.33;;
8225;SDS011;4154;48.810;9.012;2023-03-04T09:18:11;15.67;;;11.83;;
8225;SDS011;4154;48.810;9.012;2023-03-04T09:20:37;16.07;;;12.33;;
8225;SDS011;4154;48.810;9.012;2023-03-04T09:23:03;16.83;;;13.13;;
8225;SDS011;4154;48.810;9.012;2023-03-04T09:25:29;16.63;;;13.17;;
8225;SDS011;4154;48.810;9.012;2023-03-04T09:27:54;16.80;;;13.00;;
8225;SDS011;4154;48.810;9.012;2023-03-04T09:30:20;18.10;;;13.27;;
8225;SDS011;4154;48.810;9.012;2023-03-04T09:32:46;17.50;;;14.13;;
8225;SDS011;4154;48.810;9.012;2023-03-04T09:35:12;18.53;;;14.63;;
8225;SDS011;4154;48.810;9.012;2023-03-04T09:37:37;18.50;;;14.77;;
8225;SDS011;4154;48.810;9.012;2023-03-04T09:40:03;18.70;;;14.80;;
8225;SDS011;4154;48.810;9.012;2023-03-04T09:42:33;17.30;;;14.47;;
8225;SDS011;4154;48.810;9.012;2023-03-04T09:45:06;19.67;;;15.60;;
8225;SDS011;4154;48.810;9.012;2023-03-04T09:47:39;21.13;;;16.23;;
8225;SDS011;4154;48.810;9.012;2023-03-04T09:50:06;20.63;;;15.77;;
8225;SDS011;4154;48.810;9.012;2023-03-04T09:55:41;20.30;;;15.77;;
8225;SDS011;4154;48.810;9.012;2023-03-04T09:58:19;20.30;;;15.90;;
8225;SDS011;4154;48.810;9.012;2023-03-04T10:04:46;22.07;;;16.70;;
8225;SDS011;4154;48.810;9.012;2023-03-04T10:07:03;23.40;;;17.23;;
8225;SDS011;4154;48.810;9.012;2023-03-04T10:10:24;21.50;;;16.60;;
8225;SDS011;4154;48.810;9.012;2023-03-04T10:12:37;22.47;;;17.10;;
8225;SDS011;4154;48.810;9.012;2023-03-04T10:15:24;22.97;;;17.10;;
8225;SDS011;4154;48.810;9.012;2023-03-04T10:18:18;21.20;;;17.23;;
8225;SDS011;4154;48.810;9.012;2023-03-04T10:21:08;22.07;;;16.83;;
8225;SDS011;4154;48.810;9.012;2023-03-04T10:24:00;21.40;;;16.97;;
8225;SDS011;4154;48.810;9.012;2023-03-04T10:26:38;23.77;;;18.73;;
8225;SDS011;4154;48.810;9.012;2023-03-04T10:29:10;25.43;;;19.63;;
8225;SDS011;4154;48.810;9.012;2023-03-04T10:31:44;27.50;;;19.30;;
8225;SDS011;4154;48.810;9.012;2023-03-04T10:34:12;26.07;;;20.13;;
8225;SDS011;4154;48.810;9.012;2023-03-04T10:36:59;29.83;;;20.90;;
8225;SDS011;4154;48.810;9.012;2023-03-04T10:39:32;29.33;;;20.97;;
8225;SDS011;4154;48.810;9.012;2023-03-04T10:42:04;27.23;;;20.13;;
8225;SDS011;4154;48.810;9.012;2023-03-04T10:44:53;27.63;;;21.40;;
8225;SDS011;4154;48.810;9.012;2023-03-04T10:47:25;29.10;;;21.67;;
8225;SDS011;4154;48.810;9.012;2023-03-04T10:49:57;28.57;;;21.97;;
8225;SDS011;4154;48.810;9.012;2023-03-04T10:52:39;30.13;;;20.97;;
8225;SDS011;4154;48.810;9.012;2023-03-04T10:55:15;28.43;;;21.27;;
8225;SDS011;4154;48.810;9.012;2023-03-04T10:58:02;25.80;;;19.90;;
8225;SDS011;4154;48.810;9.012;2023-03-04T11:03:19;26.63;;;20.10;;
8225;SDS011;4154;48.810;9.012;2023-03-04T11:05:50;27.60;;;20.77;;
8225;SDS011;4154;48.810;9.012;2023-03-04T11:08:27;24.50;;;18.53;;
8225;SDS011;4154;48.810;9.012;2023-03-04T11:10:53;27.23;;;18.93;;
8225;SDS011;4154;48.810;9.012;2023-03-04T11:13:22;25.10;;;19.67;;
8225;SDS011;4154;48.810;9.012;2023-03-04T11:18:45;23.93;;;19.10;;
8225;SDS011;4154;48.810;9.012;2023-03-04T11:21:17;24.57;;;18.90;;
8225;SDS011;4154;48.810;9.012;2023-03-04T11:23:48;23.63;;;19.13;;
8225;SDS011;4154;48.810;9.012;2023-03-04T11:26:27;24.43;;;18.93;;
8225;SDS011;4154;48.810;9.012;2023-03-04T11:29:13;23.37;;;18.73;;
8225;SDS011;4154;48.810;9.012;2023-03-04T11:31:50;24.30;;;19.07;;
8225;SDS011;4154;48.810;9.012;2023-03-04T11:37:15;27.00;;;19.03;;
8225;SDS011;4154;48.810;9.012;2023-03-04T11:40:43;24.40;;;18.60;;
8225;SDS011;4154;48.810;9.012;2023-03-04T11:43:23;22.97;;;18.37;;
8225;SDS011;4154;48.810;9.012;2023-03-04T11:54:34;24.00;;;18.00;;
8225;SDS011;4154;48.810;9.012;2023-03-04T11:57:37;23.70;;;18.33;;
8225;SDS011;4154;48.810;9.012;2023-03-04T12:00:33;25.20;;;17.60;;
8225;SDS011;4154;48.810;9.012;2023-03-04T12:06:26;22.87;;;18.53;;
8225;SDS011;4154;48.810;9.012;2023-03-04T12:09:22;26.20;;;18.43;;
8225;SDS011;4154;48.810;9.012;2023-03-04T12:12:22;22.97;;;18.17;;
8225;SDS011;4154;48.810;9.012;2023-03-04T12:35:52;24.00;;;18.83;;
8225;SDS011;4154;48.810;9.012;2023-03-04T12:38:39;25.50;;;18.33;;
8225;SDS011;4154;48.810;9.012;2023-03-04T12:41:46;24.10;;;18.43;;
8225;SDS011;4154;48.810;9.012;2023-03-04T12:44:42;27.10;;;19.60;;
8225;SDS011;4154;48.810;9.012;2023-03-04T12:53:26;26.30;;;19.60;;
8225;SDS011;4154;48.810;9.012;2023-03-04T12:56:08;26.50;;;19.63;;
8225;SDS011;4154;48.810;9.012;2023-03-04T12:59:22;30.63;;;20.10;;
8225;SDS011;4154;48.810;9.012;2023-03-04T13:07:32;31.53;;;20.50;;
8225;SDS011;4154;48.810;9.012;2023-03-04T13:10:12;27.90;;;19.30;;
8225;SDS011;4154;48.810;9.012;2023-03-04T13:13:00;29.07;;;19.27;;
8225;SDS011;4154;48.810;9.012;2023-03-04T13:15:28;26.40;;;18.57;;
8225;SDS011;4154;48.810;9.012;2023-03-04T13:17:58;25.27;;;17.80;;
8225;SDS011;4154;48.810;9.012;2023-03-04T13:20:39;24.00;;;18.47;;
8225;SDS011;4154;48.810;9.012;2023-03-04T13:25:47;20.70;;;15.17;;
8225;SDS011;4154;48.810;9.012;2023-03-04T13:28:40;21.77;;;15.20;;
8225;SDS011;4154;48.810;9.012;2023-03-04T13:33:43;18.47;;;14.33;;
8225;SDS011;4154;48.810;9.012;2023-03-04T13:36:31;19.50;;;15.10;;
8225;SDS011;4154;48.810;9.012;2023-03-04T13:41:47;17.80;;;13.63;;
8225;SDS011;4154;48.810;9.012;2023-03-04T13:44:31;20.07;;;14.03;;
8225;SDS011;4154;48.810;9.012;2023-03-04T13:46:57;19.03;;;14.70;;
8225;SDS011;4154;48.810;9.012;2023-03-04T13:49:41;18.50;;;13.80;;
8225;SDS011;4154;48.810;9.012;2023-03-04T14:00:52;21.80;;;15.10;;
8225;SDS011;4154;48.810;9.012;2023-03-04T14:03:23;19.70;;;15.00;;
8225;SDS011;4154;48.810;9.012;2023-03-04T14:08:55;19.23;;;15.07;;
8225;SDS011;4154;48.810;9.012;2023-03-04T14:14:14;20.60;;;13.97;;
8225;SDS011;4154;48.810;9.012;2023-03-04T14:16:49;20.97;;;14.53;;
8225;SDS011;4154;48.810;9.012;2023-03-04T14:19:22;22.40;;;13.77;;
8225;SDS011;4154;48.810;9.012;2023-03-04T14:21:55;19.53;;;14.40;;
8225;SDS011;4154;48.810;9.012;2023-03-04T14:24:24;20.90;;;13.63;;
8225;SDS011;4154;48.810;9.012;2023-03-04T14:26:57;22.20;;;14.93;;
8225;SDS011;4154;48.810;9.012;2023-03-04T14:29:35;22.17;;;14.57;;
8225;SDS011;4154;48.810;9.012;2023-03-04T14:32:01;22.93;;;15.17;;
8225;SDS011;4154;48.810;9.012;2023-03-04T14:34:33;23.37;;;15.77;;
8225;SDS011;4154;48.810;9.012;2023-03-04T14:37:03;20.93;;;14.30;;
8225;SDS011;4154;48.810;9.012;2023-03-04T14:39:49;22.73;;;15.00;;
8225;SDS011;4154;48.810;9.012;2023-03-04T14:42:23;22.57;;;15.80;;
8225;SDS011;4154;48.810;9.012;2023-03-04T14:45:04;22.37;;;15.37;;
8225;SDS011;4154;48.810;9.012;2023-03-04T14:50:10;25.10;;;15.87;;
8225;SDS011;4154;48.810;9.012;2023-03-04T14:52:45;24.57;;;15.33;;
8225;SDS011;4154;48.810;9.012;2023-03-04T15:00:33;24.53;;;15.87;;
8225;SDS011;4154;48.810;9.012;2023-03-04T15:05:44;21.63;;;14.87;;
8225;SDS011;4154;48.810;9.012;2023-03-04T15:08:21;25.00;;;15.97;;
8225;SDS011;4154;48.810;9.012;2023-03-04T15:10:57;21.13;;;14.73;;
8225;SDS011;4154;48.810;9.012;2023-03-04T15:13:48;22.90;;;15.73;;
8225;SDS011;4154;48.810;9.012;2023-03-04T15:16:19;21.70;;;14.47;;
8225;SDS011;4154;48.810;9.012;2023-03-04T15:21:28;22.07;;;14.67;;
8225;SDS011;4154;48.810;9.012;2023-03-04T15:24:05;20.43;;;14.13;;
8225;SDS011;4154;48.810;9.012;2023-03-04T15:26:39;22.90;;;14.57;;
8225;SDS011;4154;48.810;9.012;2023-03-04T15:29:14;22.67;;;14.80;;
8225;SDS011;4154;48.810;9.012;2023-03-04T15:31:44;20.47;;;14.80;;
8225;SDS011;4154;48.810;9.012;2023-03-04T15:34:13;22.83;;;14.07;;
8225;SDS011;4154;48.810;9.012;2023-03-04T15:36:45;19.87;;;13.87;;
8225;SDS011;4154;48.810;9.012;2023-03-04T15:39:15;20.60;;;14.23;;
8225;SDS011;4154;48.810;9.012;2023-03-04T15:41:42;27.13;;;14.13;;
8225;SDS011;4154;48.810;9.012;2023-03-04T15:44:10;20.43;;;13.27;;
8225;SDS011;4154;48.810;9.012;2023-03-04T15:46:37;19.20;;;13.40;;
8225;SDS011;4154;48.810;9.012;2023-03-04T15:49:02;19.23;;;13.37;;
8225;SDS011;4154;48.810;9.012;2023-03-04T15:51:28;19.67;;;12.83;;
8225;SDS011;4154;48.810;9.012;2023-03-04T15:53:54;19.47;;;13.50;;
8225;SDS011;4154;48.810;9.012;2023-03-04T15:56:23;19.87;;;13.70;;
8225;SDS011;4154;48.810;9.012;2023-03-04T15:58:59;21.03;;;12.60;;
8225;SDS011;4154;48.810;9.012;2023-03-04T16:01:31;20.07;;;13.80;;
8225;SDS011;4154;48.810;9.012;2023-03-04T16:03:56;21.33;;;13.07;;
8225;SDS011;4154;48.810;9.012;2023-03-04T16:06:23;20.73;;;13.57;;
8225;SDS011;4154;48.810;9.012;2023-03-04T16:08:55;22.00;;;12.73;;
8225;SDS011;4154;48.810;9.012;2023-03-04T16:11:24;24.23;;;12.90;;
8225;SDS011;4154;48.810;9.012;2023-03-04T16:13:52;18.03;;;12.07;;
8225;SDS011;4154;48.810;9.012;2023-03-04T16:16:18;22.37;;;13.03;;
8225;SDS011;4154;48.810;9.012;2023-03-04T16:18:45;20.50;;;12.37;;
8225;SDS011;4154;48.810;9.012;2023-03-04T16:21:12;20.60;;;12.43;;
8225;SDS011;4154;48.810;9.012;2023-03-04T16:23:45;21.67;;;12.50;;
8225;SDS011;4154;48.810;9.012;2023-03-04T16:26:14;20.17;;;13.00;;
8225;SDS011;4154;48.810;9.012;2023-03-04T16:28:44;17.30;;;11.87;;
8225;SDS011;4154;48.810;9.012;2023-03-04T16:31:11;17.10;;;11.87;;
8225;SDS011;4154;48.810;9.012;2023-03-04T16:33:38;18.53;;;12.20;;
8225;SDS011;4154;48.810;9.012;2023-03-04T16:36:23;17.30;;;11.97;;
8225;SDS011;4154;48.810;9.012;2023-03-04T16:38:53;22.07;;;11.67;;
8225;SDS011;4154;48.810;9.012;2023-03-04T16:41:25;20.40;;;12.13;;
8225;SDS011;4154;48.810;9.012;2023-03-04T16:43:56;20.17;;;12.00;;